sensor_id;sensor_type;location;lat;lon;timestamp;P1;durP1;ratioP1;P2;durP2;ratioP2
21743;SDS011;11034;48.556;9.342;2023-04-08T04:47:33;37.10;;;20.92;;
21743;SDS011;11034;48.556;9.342;2023-04-08T04:50:01;40.28;;;21.38;;
21743;SDS011;11034;48.556;9.342;2023-04-08T04:52:30;41.53;;;22.27;;
21743;SDS011;11034;48.556;9.342;2023-04-08T04:54:58;46.40;;;23.17;;
21743;SDS011;11034;48.556;9.342;2023-04-08T04:57:26;43.22;;;23.25;;
21743;SDS011;11034;48.556;9.342;2023-04-08T04:59:54;42.97;;;22.80;;
21743;SDS011;11034;48.556;9.342;2023-04-08T05:02:22;41.92;;;22.65;;
21743;SDS011;11034;48.556;9.342;2023-04-08T05:04:51;43.60;;;22.80;;
21743;SDS011;11034;48.556;9.342;2023-04-08T05:07:20;39.17;;;21.15;;
21743;SDS011;11034;48.556;9.342;2023-04-08T05:09:48;35.03;;;19.25;;
21743;SDS011;11034;48.556;9.342;2023-04-08T05:12:16;33.58;;;18.90;;
21743;SDS011;11034;48.556;9.342;2023-04-08T05:14:45;37.95;;;21.08;;
21743;SDS011;11034;48.556;9.342;2023-04-08T05:17:13;35.10;;;20.80;;
21743;SDS011;11034;48.556;9.342;2023-04-08T05:19:42;35.45;;;19.75;;
21743;SDS011;11034;48.556;9.342;2023-04-08T05:22:11;34.17;;;19.50;;
21743;SDS011;11034;48.556;9.342;2023-04-08T05:24:39;38.28;;;22.00;;
21743;SDS011;11034;48.556;9.342;2023-04-08T05:27:07;33.85;;;20.52;;
21743;SDS011;11034;48.556;9.342;2023-04-08T05:29:35;33.55;;;19.50;;
21743;SDS011;11034;48.556;9.342;2023-04-08T05:32:03;34.15;;;19.70;;
21743;SDS011;11034;48.556;9.342;2023-04-08T05:34:31;37.90;;;21.63;;
21743;SDS011;11034;48.556;9.342;2023-04-08T05:36:59;35.75;;;19.95;;
21743;SDS011;11034;48.556;9.342;2023-04-08T05:39:28;33.40;;;18.92;;
21743;SDS011;11034;48.556;9.342;2023-04-08T05:41:56;33.75;;;18.88;;
21743;SDS011;11034;48.556;9.342;2023-04-08T05:44:25;31.30;;;18.55;;
21743;SDS011;11034;48.556;9.342;2023-04-08T05:46:53;30.00;;;17.80;;
21743;SDS011;11034;48.556;9.342;2023-04-08T05:49:23;27.05;;;17.92;;
21743;SDS011;11034;48.556;9.342;2023-04-08T05:51:51;29.30;;;16.73;;
21743;SDS011;11034;48.556;9.342;2023-04-08T05:54:19;28.05;;;16.70;;
21743;SDS011;11034;48.556;9.342;2023-04-08T05:56:48;96.55;;;20.60;;
21743;SDS011;11034;48.556;9.342;2023-04-08T05:59:16;32.03;;;18.63;;
21743;SDS011;11034;48.556;9.342;2023-04-08T06:01:44;30.58;;;17.63;;
21743;SDS011;11034;48.556;9.342;2023-04-08T06:04:12;26.65;;;17.33;;
21743;SDS011;11034;48.556;9.342;2023-04-08T06:06:42;27.70;;;15.25;;
21743;SDS011;11034;48.556;9.342;2023-04-08T06:09:11;23.17;;;14.82;;
21743;SDS011;11034;48.556;9.342;2023-04-08T06:11:39;24.23;;;14.30;;
21743;SDS011;11034;48.556;9.342;2023-04-08T06:14:08;22.30;;;14.20;;
21743;SDS011;11034;48.556;9.342;2023-04-08T06:16:36;23.08;;;14.57;;
21743;SDS011;11034;48.556;9.342;2023-04-08T06:19:04;24.88;;;15.82;;
21743;SDS011;11034;48.556;9.342;2023-04-08T06:21:32;25.20;;;16.58;;
21743;SDS011;11034;48.556;9.342;2023-04-08T06:24:04;23.52;;;14.88;;
21743;SDS011;11034;48.556;9.342;2023-04-08T06:26:32;24.38;;;15.10;;
21743;SDS011;11034;48.556;9.342;2023-04-08T06:29:00;24.90;;;14.95;;
21743;SDS011;11034;48.556;9.342;2023-04-08T06:31:31;23.25;;;14.63;;
21743;SDS011;11034;48.556;9.342;2023-04-08T06:33:59;24.15;;;14.57;;
21743;SDS011;11034;48.556;9.342;2023-04-08T06:36:27;23.48;;;13.98;;
21743;SDS011;11034;48.556;9.342;2023-04-08T06:38:55;22.77;;;14.18;;
21743;SDS011;11034;48.556;9.342;2023-04-08T06:41:23;24.02;;;13.95;;
21743;SDS011;11034;48.556;9.342;2023-04-08T06:43:51;22.83;;;14.45;;
21743;SDS011;11034;48.556;9.342;2023-04-08T14:02:32;20.30;;;14.60;;
21743;SDS011;11034;48.556;9.342;2023-04-08T14:05:00;19.75;;;14.60;;
21743;SDS011;11034;48.556;9.342;2023-04-08T14:07:29;20.00;;;13.18;;
21743;SDS011;11034;48.556;9.342;2023-04-08T14:09:57;19.38;;;13.93;;
21743;SDS011;11034;48.556;9.342;2023-04-08T14:12:25;20.73;;;13.68;;
21743;SDS011;11034;48.556;9.342;2023-04-08T14:14:53;18.67;;;13.27;;
21743;SDS011;11034;48.556;9.342;2023-04-08T14:17:21;19.90;;;15.43;;
21743;SDS011;11034;48.556;9.342;2023-04-08T14:19:51;17.77;;;13.05;;
21743;SDS011;11034;48.556;9.342;2023-04-08T14:22:19;20.00;;;14.93;;
21743;SDS011;11034;48.556;9.342;2023-04-08T14:24:47;18.65;;;13.00;;
21743;SDS011;11034;48.556;9.342;2023-04-08T14:27:15;18.00;;;11.93;;
21743;SDS011;11034;48.556;9.342;2023-04-08T14:29:43;17.95;;;12.75;;
21743;SDS011;11034;48.556;9.342;2023-04-08T14:32:11;17.48;;;12.68;;
21743;SDS011;11034;48.556;9.342;2023-04-08T14:34:40;17.13;;;13.05;;
21743;SDS011;11034;48.556;9.342;2023-04-08T14:37:20;19.05;;;12.65;;
21743;SDS011;11034;48.556;9.342;2023-04-08T14:39:48;15.65;;;11.57;;
21743;SDS011;11034;48.556;9.342;2023-04-08T14:42:16;17.48;;;12.80;;
21743;SDS011;11034;48.556;9.342;2023-04-08T14:44:44;17.88;;;12.80;;
21743;SDS011;11034;48.556;9.342;2023-04-08T14:47:12;16.27;;;12.18;;
21743;SDS011;11034;48.556;9.342;2023-04-08T14:49:40;18.98;;;13.45;;
21743;SDS011;11034;48.556;9.342;2023-04-08T14:52:08;19.30;;;13.85;;
21743;SDS011;11034;48.556;9.342;2023-04-08T14:54:38;25.13;;;16.90;;
21743;SDS011;11034;48.556;9.342;2023-04-08T14:57:06;24.38;;;16.63;;
21743;SDS011;11034;48.556;9.342;2023-04-08T14:59:34;21.17;;;12.95;;
21743;SDS011;11034;48.556;9.342;2023-04-08T15:02:02;18.50;;;13.73;;
21743;SDS011;11034;48.556;9.342;2023-04-08T15:04:30;17.95;;;12.43;;
21743;SDS011;11034;48.556;9.342;2023-04-08T15:06:58;18.27;;;12.90;;
21743;SDS011;11034;48.556;9.342;2023-04-08T15:09:27;17.70;;;12.75;;
21743;SDS011;11034;48.556;9.342;2023-04-08T15:11:56;18.70;;;13.68;;
21743;SDS011;11034;48.556;9.342;2023-04-08T15:14:25;19.27;;;14.00;;
21743;SDS011;11034;48.556;9.342;2023-04-08T15:16:53;17.70;;;12.50;;
21743;SDS011;11034;48.556;9.342;2023-04-08T15:19:21;19.75;;;13.57;;
21743;SDS011;11034;48.556;9.342;2023-04-08T15:21:49;18.50;;;13.45;;
21743;SDS011;11034;48.556;9.342;2023-04-08T15:24:18;17.08;;;12.65;;
21743;SDS011;11034;48.556;9.342;2023-04-08T15:26:48;20.17;;;13.15;;
21743;SDS011;11034;48.556;9.342;2023-04-08T15:29:17;16.38;;;13.43;;
21743;SDS011;11034;48.556;9.342;2023-04-08T15:31:47;18.75;;;12.90;;
21743;SDS011;11034;48.556;9.342;2023-04-08T15:34:15;15.30;;;11.82;;
21743;SDS011;11034;48.556;9.342;2023-04-08T15:36:43;17.92;;;12.02;;
21743;SDS011;11034;48.556;9.342;2023-04-08T15:39:12;15.77;;;12.57;;
21743;SDS011;11034;48.556;9.342;2023-04-08T15:41:40;19.45;;;12.70;;
21743;SDS011;11034;48.556;9.342;2023-04-08T15:44:08;16.65;;;11.63;;
21743;SDS011;11034;48.556;9.342;2023-04-08T15:46:38;14.93;;;11.45;;
21743;SDS011;11034;48.556;9.342;2023-04-08T15:49:06;15.73;;;10.48;;
21743;SDS011;11034;48.556;9.342;2023-04-08T15:51:34;13.43;;;10.57;;
21743;SDS011;11034;48.556;9.342;2023-04-08T15:54:02;14.77;;;9.95;;
21743;SDS011;11034;48.556;9.342;2023-04-08T15:56:30;12.90;;;9.95;;
21743;SDS011;11034;48.556;9.342;2023-04-08T15:58:58;15.30;;;10.93;;
21743;SDS011;11034;48.556;9.342;2023-04-08T16:01:26;15.88;;;10.23;;
21743;SDS011;11034;48.556;9.342;2023-04-08T16:03:56;15.43;;;9.77;;
21743;SDS011;11034;48.556;9.342;2023-04-08T16:06:24;12.18;;;9.15;;
21743;SDS011;11034;48.556;9.342;2023-04-08T16:08:52;10.98;;;8.25;;
21743;SDS011;11034;48.556;9.342;2023-04-08T16:11:20;11.95;;;8.50;;
21743;SDS011;11034;48.556;9.342;2023-04-08T16:13:48;10.88;;;8.52;;
21743;SDS011;11034;48.556;9.342;2023-04-08T16:16:16;13.63;;;8.50;;
21743;SDS011;11034;48.556;9.342;2023-04-08T16:18:45;10.38;;;7.55;;
21743;SDS011;11034;48.556;9.342;2023-04-08T16:21:15;10.45;;;7.63;;
21743;SDS011;11034;48.556;9.342;2023-04-08T16:23:43;10.63;;;7.85;;
21743;SDS011;11034;48.556;9.342;2023-04-08T16:26:11;11.32;;;7.80;;
21743;SDS011;11034;48.556;9.342;2023-04-08T16:28:39;10.73;;;6.60;;
21743;SDS011;11034;48.556;9.342;2023-04-08T16:31:07;9.73;;;6.72;;
21743;SDS011;11034;48.556;9.342;2023-04-08T16:33:35;9.73;;;6.18;;
21743;SDS011;11034;48.556;9.342;2023-04-08T16:36:03;9.57;;;7.10;;
21743;SDS011;11034;48.556;9.342;2023-04-08T16:38:33;10.20;;;6.93;;
21743;SDS011;11034;48.556;9.342;2023-04-08T16:41:02;9.10;;;6.70;;
21743;SDS011;11034;48.556;9.342;2023-04-08T16:43:31;10.57;;;7.25;;
21743;SDS011;11034;48.556;9.342;2023-04-08T16:45:59;10.32;;;7.25;;
21743;SDS011;11034;48.556;9.342;2023-04-08T16:48:35;10.13;;;7.82;;
21743;SDS011;11034;48.556;9.342;2023-04-08T16:51:04;11.63;;;8.10;;
21743;SDS011;11034;48.556;9.342;2023-04-08T16:53:34;12.20;;;8.88;;
21743;SDS011;11034;48.556;9.342;2023-04-08T16:56:03;12.00;;;8.07;;
21743;SDS011;11034;48.556;9.342;2023-04-08T16:58:32;10.18;;;7.82;;
21743;SDS011;11034;48.556;9.342;2023-04-08T17:01:00;10.82;;;7.82;;
21743;SDS011;11034;48.556;9.342;2023-04-08T17:03:32;13.13;;;8.10;;
21743;SDS011;11034;48.556;9.342;2023-04-08T17:06:07;10.48;;;7.57;;
21743;SDS011;11034;48.556;9.342;2023-04-08T17:08:36;13.52;;;7.75;;
21743;SDS011;11034;48.556;9.342;2023-04-08T17:11:05;9.60;;;7.35;;
21743;SDS011;11034;48.556;9.342;2023-04-08T17:13:36;13.00;;;8.10;;
21743;SDS011;11034;48.556;9.342;2023-04-08T17:16:04;11.50;;;8.55;;
21743;SDS011;11034;48.556;9.342;2023-04-08T17:18:32;10.50;;;8.13;;
21743;SDS011;11034;48.556;9.342;2023-04-08T17:21:00;11.80;;;8.63;;
21743;SDS011;11034;48.556;9.342;2023-04-08T17:23:28;12.80;;;8.75;;
21743;SDS011;11034;48.556;9.342;2023-04-08T17:25:58;18.48;;;11.30;;
21743;SDS011;11034;48.556;9.342;2023-04-08T17:28:26;20.00;;;13.57;;
21743;SDS011;11034;48.556;9.342;2023-04-08T17:30:54;20.92;;;17.15;;
21743;SDS011;11034;48.556;9.342;2023-04-08T17:33:22;14.95;;;11.95;;
21743;SDS011;11034;48.556;9.342;2023-04-08T17:35:50;13.35;;;9.27;;
21743;SDS011;11034;48.556;9.342;2023-04-08T17:38:18;12.15;;;8.80;;
21743;SDS011;11034;48.556;9.342;2023-04-08T17:40:47;12.23;;;8.90;;
21743;SDS011;11034;48.556;9.342;2023-04-08T17:43:16;12.52;;;8.57;;
21743;SDS011;11034;48.556;9.342;2023-04-08T17:45:44;11.45;;;7.97;;
21743;SDS011;11034;48.556;9.342;2023-04-08T17:48:15;13.00;;;9.52;;
21743;SDS011;11034;48.556;9.342;2023-04-08T17:50:43;14.80;;;8.82;;
21743;SDS011;11034;48.556;9.342;2023-04-08T17:53:11;12.55;;;9.27;;
21743;SDS011;11034;48.556;9.342;2023-04-08T17:55:39;13.50;;;8.90;;
21743;SDS011;11034;48.556;9.342;2023-04-08T17:58:07;12.30;;;9.00;;
21743;SDS011;11034;48.556;9.342;2023-04-08T18:00:37;10.88;;;8.52;;
21743;SDS011;11034;48.556;9.342;2023-04-08T18:03:05;12.70;;;8.70;;
21743;SDS011;11034;48.556;9.342;2023-04-08T18:05:34;13.10;;;9.10;;
21743;SDS011;11034;48.556;9.342;2023-04-08T18:08:02;11.65;;;9.25;;
21743;SDS011;11034;48.556;9.342;2023-04-08T18:10:30;11.50;;;9.00;;
21743;SDS011;11034;48.556;9.342;2023-04-08T18:12:58;13.25;;;10.13;;
21743;SDS011;11034;48.556;9.342;2023-04-08T18:15:38;14.45;;;10.25;;
21743;SDS011;11034;48.556;9.342;2023-04-08T18:18:06;13.65;;;11.18;;
21743;SDS011;11034;48.556;9.342;2023-04-08T18:20:34;14.93;;;10.05;;
21743;SDS011;11034;48.556;9.342;2023-04-08T18:23:03;12.45;;;9.23;;
21743;SDS011;11034;48.556;9.342;2023-04-08T18:25:31;11.45;;;8.80;;
21743;SDS011;11034;48.556;9.342;2023-04-08T18:27:59;13.82;;;9.63;;
21743;SDS011;11034;48.556;9.342;2023-04-08T18:30:27;13.13;;;10.02;;
21743;SDS011;11034;48.556;9.342;2023-04-08T18:32:57;14.68;;;8.93;;
21743;SDS011;11034;48.556;9.342;2023-04-08T18:35:27;12.05;;;9.05;;
21743;SDS011;11034;48.556;9.342;2023-04-08T18:37:55;12.77;;;9.65;;
21743;SDS011;11034;48.556;9.342;2023-04-08T18:40:23;13.20;;;10.05;;
21743;SDS011;11034;48.556;9.342;2023-04-08T18:42:51;14.18;;;10.65;;
21743;SDS011;11034;48.556;9.342;2023-04-08T18:45:19;16.60;;;11.88;;
21743;SDS011;11034;48.556;9.342;2023-04-08T18:47:47;13.70;;;11.38;;
21743;SDS011;11034;48.556;9.342;2023-04-08T18:50:17;14.50;;;11.48;;
21743;SDS011;11034;48.556;9.342;2023-04-08T18:52:45;13.35;;;10.75;;
21743;SDS011;11034;48.556;9.342;2023-04-08T18:55:15;13.85;;;10.48;;
21743;SDS011;11034;48.556;9.342;2023-04-08T18:57:43;14.10;;;11.20;;
21743;SDS011;11034;48.556;9.342;2023-04-08T19:00:11;13.25;;;9.95;;
21743;SDS011;11034;48.556;9.342;2023-04-08T19:02:39;11.52;;;9.25;;
21743;SDS011;11034;48.556;9.342;2023-04-08T19:05:08;13.70;;;10.70;;
21743;SDS011;11034;48.556;9.342;2023-04-08T19:07:37;16.13;;;11.20;;
21743;SDS011;11034;48.556;9.342;2023-04-08T19:10:05;14.48;;;10.27;;
21743;SDS011;11034;48.556;9.342;2023-04-08T19:12:34;15.93;;;11.75;;
21743;SDS011;11034;48.556;9.342;2023-04-08T19:15:02;16.48;;;11.02;;
21743;SDS011;11034;48.556;9.342;2023-04-08T19:17:31;14.88;;;10.90;;
21743;SDS011;11034;48.556;9.342;2023-04-08T19:19:59;15.73;;;11.68;;
21743;SDS011;11034;48.556;9.342;2023-04-08T19:22:28;15.90;;;11.75;;
21743;SDS011;11034;48.556;9.342;2023-04-08T19:24:58;13.63;;;10.48;;
21743;SDS011;11034;48.556;9.342;2023-04-08T19:27:26;15.05;;;11.10;;
21743;SDS011;11034;48.556;9.342;2023-04-08T19:29:54;16.30;;;11.75;;
21743;SDS011;11034;48.556;9.342;2023-04-08T19:32:22;17.23;;;12.57;;
21743;SDS011;11034;48.556;9.342;2023-04-08T19:34:51;15.98;;;12.10;;
21743;SDS011;11034;48.556;9.342;2023-04-08T19:37:19;16.98;;;12.40;;
21743;SDS011;11034;48.556;9.342;2023-04-08T19:39:47;16.05;;;12.35;;
21743;SDS011;11034;48.556;9.342;2023-04-08T19:42:17;17.88;;;12.43;;
21743;SDS011;11034;48.556;9.342;2023-04-08T19:44:45;15.48;;;11.88;;
21743;SDS011;11034;48.556;9.342;2023-04-08T19:47:14;16.90;;;12.30;;
21743;SDS011;11034;48.556;9.342;2023-04-08T19:49:42;17.08;;;12.38;;
21743;SDS011;11034;48.556;9.342;2023-04-08T19:52:11;17.88;;;12.35;;
21743;SDS011;11034;48.556;9.342;2023-04-08T19:54:39;18.33;;;13.68;;
21743;SDS011;11034;48.556;9.342;2023-04-08T19:57:08;16.80;;;12.65;;
21743;SDS011;11034;48.556;9.342;2023-04-08T19:59:38;17.88;;;13.07;;
